Time;durP1;ratioP1;P1;durP2;ratioP2;P2;SDS_P1;SDS_P2;PMS_P1;PMS_P2;Temp;Humidity;BMP_temperature;BMP_pressure;BME280_temperature;BME280_humidity;BME280_pressure;Samples;Min_cycle;Max_cycle;Signal;HPM_P1;HPM_P2
2021/06/11 00:01:41;;;;;;;6.82;6.13;;;;;;;;;;5101274;28;20085;-92
2021/06/11 00:04:07;;;;;;;8.15;6.07;;;;;;;;;;5100966;28;20020;-92
2021/06/11 00:06:33;;;;;;;7.53;6.53;;;;;;;;;;5099901;28;20020;-92
2021/06/11 00:08:59;;;;;;;7.85;6.32;;;;;;;;;;5100702;28;20110;-91
2021/06/11 00:11:26;;;;;;;7.60;6.63;;;;;;;;;;5101084;28;20020;-92
2021/06/11 00:13:52;;;;;;;7.80;6.95;;;;;;;;;;5100004;28;20413;-91
2021/06/11 00:16:18;;;;;;;8.05;6.90;;;;;;;;;;5099669;28;20032;-92
2021/06/11 00:18:44;;;;;;;7.72;6.72;;;;;;;;;;5100891;28;20024;-92
2021/06/11 00:21:10;;;;;;;8.00;7.20;;;;;;;;;;5099651;28;20020;-93
2021/06/11 00:23:36;;;;;;;8.20;7.13;;;;;;;;;;5099550;28;20058;-92
2021/06/11 00:26:02;;;;;;;10.35;8.45;;;;;;;;;;5100573;28;20024;-92
2021/06/11 00:28:29;;;;;;;13.13;8.88;;;;;;;;;;5100392;28;20061;-92
2021/06/11 00:30:55;;;;;;;10.43;8.40;;;;;;;;;;5100524;28;20023;-92
2021/06/11 00:36:24;;;;;;;15.82;8.57;;;;;;;;;;5100217;28;20329;-92
2021/06/11 00:38:50;;;;;;;10.88;8.38;;;;;;;;;;5100653;28;20020;-91
2021/06/11 00:41:17;;;;;;;11.00;7.55;;;;;;;;;;5099302;28;20024;-91
2021/06/11 00:43:43;;;;;;;8.82;7.88;;;;;;;;;;5100419;28;20279;-92
2021/06/11 00:46:09;;;;;;;9.82;8.00;;;;;;;;;;5100278;28;20020;-92
2021/06/11 00:51:39;;;;;;;9.82;8.25;;;;;;;;;;5100236;28;20027;-92
2021/06/11 00:54:05;;;;;;;10.10;8.52;;;;;;;;;;5099641;28;20150;-92
2021/06/11 00:56:31;;;;;;;9.35;7.82;;;;;;;;;;5098538;28;20048;-91
2021/06/11 00:58:57;;;;;;;11.85;8.60;;;;;;;;;;5100114;28;20374;-93
2021/06/11 01:01:23;;;;;;;10.88;8.00;;;;;;;;;;5099874;28;20393;-93
2021/06/11 01:06:53;;;;;;;12.30;8.45;;;;;;;;;;5099912;28;20030;-92
2021/06/11 01:09:19;;;;;;;11.18;8.73;;;;;;;;;;5098640;28;20024;-92
2021/06/11 01:11:46;;;;;;;9.48;8.50;;;;;;;;;;5099553;28;20027;-91
2021/06/11 01:14:12;;;;;;;11.57;8.93;;;;;;;;;;5099825;28;20090;-94
2021/06/11 01:16:39;;;;;;;12.30;9.50;;;;;;;;;;5098422;28;20064;-91
2021/06/11 01:22:13;;;;;;;10.63;8.60;;;;;;;;;;5099787;28;20420;-92
2021/06/11 01:24:47;;;;;;;10.83;8.73;;;;;;;;;;5099649;28;20063;-91
2021/06/11 01:27:13;;;;;;;11.68;8.50;;;;;;;;;;5099124;28;20071;-91
2021/06/11 01:29:42;;;;;;;8.93;8.02;;;;;;;;;;5098410;28;20117;-93
2021/06/11 01:32:08;;;;;;;10.35;8.50;;;;;;;;;;5098148;28;20115;-91
2021/06/11 01:34:38;;;;;;;9.63;7.80;;;;;;;;;;5099403;28;20102;-92
2021/06/11 01:37:32;;;;;;;12.90;8.73;;;;;;;;;;5099351;28;20379;-92
2021/06/11 01:40:00;;;;;;;8.95;8.07;;;;;;;;;;5098229;28;20146;-91
2021/06/11 01:42:27;;;;;;;8.93;8.02;;;;;;;;;;5099381;28;20026;-92
2021/06/11 01:44:54;;;;;;;11.75;8.50;;;;;;;;;;5099223;28;20036;-91
2021/06/11 01:47:20;;;;;;;10.70;8.40;;;;;;;;;;5098096;28;20112;-93
2021/06/11 01:50:06;;;;;;;10.35;9.25;;;;;;;;;;5098888;28;20031;-92
2021/06/11 01:52:32;;;;;;;11.57;8.90;;;;;;;;;;5098344;28;20040;-92
2021/06/11 01:54:59;;;;;;;10.02;8.90;;;;;;;;;;5098813;28;20402;-91
2021/06/11 01:57:25;;;;;;;9.80;8.77;;;;;;;;;;5098701;28;20048;-93
2021/06/11 01:59:52;;;;;;;10.23;9.18;;;;;;;;;;5098485;28;20432;-92
2021/06/11 02:02:19;;;;;;;10.73;8.35;;;;;;;;;;5098984;28;20028;-93
2021/06/11 02:07:49;;;;;;;10.70;8.48;;;;;;;;;;5098488;28;20031;-93
2021/06/11 02:10:18;;;;;;;11.95;9.27;;;;;;;;;;5097554;28;20067;-91
2021/06/11 02:12:44;;;;;;;12.82;9.77;;;;;;;;;;5097603;28;20021;-92
2021/06/11 02:15:11;;;;;;;9.77;8.77;;;;;;;;;;5098479;28;20016;-92
2021/06/11 02:17:41;;;;;;;10.32;9.13;;;;;;;;;;5098527;28;20146;-92
2021/06/11 02:23:10;;;;;;;9.85;8.75;;;;;;;;;;5098556;28;20043;-92
2021/06/11 02:25:36;;;;;;;12.10;9.35;;;;;;;;;;5097396;28;20105;-91
2021/06/11 02:28:02;;;;;;;10.65;9.07;;;;;;;;;;5097169;28;20102;-90
2021/06/11 02:30:29;;;;;;;13.68;8.93;;;;;;;;;;5098334;28;20115;-92
2021/06/11 02:32:55;;;;;;;9.95;8.73;;;;;;;;;;5098259;28;20054;-92
2021/06/11 02:41:50;;;;;;;12.55;9.68;;;;;;;;;;5098358;28;20321;-91
2021/06/11 02:44:16;;;;;;;14.68;10.30;;;;;;;;;;5098216;28;20019;-92
2021/06/11 02:46:52;;;;;;;14.68;10.20;;;;;;;;;;5096873;28;20024;-92
2021/06/11 02:49:21;;;;;;;12.35;10.20;;;;;;;;;;5097898;28;20056;-92
2021/06/11 02:51:49;;;;;;;14.68;10.68;;;;;;;;;;5097810;28;20024;-93
2021/06/11 02:54:26;;;;;;;13.88;10.73;;;;;;;;;;5097623;28;20109;-92
2021/06/11 02:57:02;;;;;;;14.38;10.95;;;;;;;;;;5097448;28;20052;-92
2021/06/11 02:59:31;;;;;;;11.70;10.18;;;;;;;;;;5097898;28;20016;-92
2021/06/11 03:02:01;;;;;;;11.63;10.25;;;;;;;;;;5097791;28;20028;-92
2021/06/11 03:10:35;;;;;;;15.63;10.65;;;;;;;;;;5097666;28;20023;-92
2021/06/11 03:13:02;;;;;;;11.75;10.57;;;;;;;;;;5097983;28;20047;-93
2021/06/11 03:15:30;;;;;;;16.48;10.75;;;;;;;;;;5098001;28;20024;-92
2021/06/11 03:17:57;;;;;;;13.57;10.93;;;;;;;;;;5098095;28;20024;-92
2021/06/11 03:31:27;;;;;;;15.02;10.60;;;;;;;;;;5149528;27;20527;-93
2021/06/11 03:33:55;;;;;;;14.38;10.63;;;;;;;;;;5115732;28;20027;-92
2021/06/11 03:36:56;;;;;;;14.40;10.23;;;;;;;;;;5115748;28;20024;-92
2021/06/11 03:39:30;;;;;;;13.30;10.80;;;;;;;;;;5115258;28;20420;-92
2021/06/11 03:41:57;;;;;;;11.80;10.60;;;;;;;;;;5114460;28;20409;-92
2021/06/11 03:44:23;;;;;;;15.20;11.13;;;;;;;;;;5114513;28;20081;-93
2021/06/11 03:46:50;;;;;;;14.60;11.25;;;;;;;;;;5115490;28;20313;-94
2021/06/11 03:49:19;;;;;;;13.68;10.88;;;;;;;;;;5114950;28;20024;-93
2021/06/11 03:52:22;;;;;;;13.43;11.10;;;;;;;;;;5102741;28;20028;-93
2021/06/11 03:54:48;;;;;;;16.63;11.38;;;;;;;;;;5093600;28;20437;-93
2021/06/11 03:57:15;;;;;;;13.82;10.60;;;;;;;;;;5094948;28;20073;-93
2021/06/11 03:59:43;;;;;;;15.88;11.07;;;;;;;;;;5094748;28;20056;-93
2021/06/11 04:02:09;;;;;;;16.65;11.00;;;;;;;;;;5094784;28;20069;-93
2021/06/11 04:04:36;;;;;;;14.07;11.32;;;;;;;;;;5094428;28;20056;-92
2021/06/11 04:07:02;;;;;;;19.88;12.70;;;;;;;;;;5094436;28;20036;-93
2021/06/11 04:09:29;;;;;;;18.92;11.75;;;;;;;;;;5094516;28;20028;-92
2021/06/11 04:12:06;;;;;;;16.33;11.43;;;;;;;;;;5094399;28;20035;-94
2021/06/11 04:14:36;;;;;;;11.40;10.20;;;;;;;;;;5094647;28;20016;-92
2021/06/11 04:17:05;;;;;;;12.43;9.55;;;;;;;;;;5094417;28;20421;-93
2021/06/11 04:25:38;;;;;;;13.00;9.73;;;;;;;;;;5094353;28;20024;-93
2021/06/11 04:28:05;;;;;;;12.45;9.50;;;;;;;;;;5093171;28;20421;-92
2021/06/11 04:30:32;;;;;;;13.38;10.60;;;;;;;;;;5090393;28;20049;-94
2021/06/11 04:32:58;;;;;;;15.32;10.32;;;;;;;;;;5080640;28;20100;-92
2021/06/11 04:35:25;;;;;;;14.90;10.30;;;;;;;;;;5079483;28;20070;-92
2021/06/11 04:37:52;;;;;;;14.77;10.20;;;;;;;;;;5079480;28;20021;-93
2021/06/11 04:40:18;;;;;;;16.77;10.90;;;;;;;;;;5080135;28;20398;-92
2021/06/11 04:42:44;;;;;;;12.73;10.70;;;;;;;;;;5079445;28;20048;-94
2021/06/11 04:45:11;;;;;;;15.25;11.07;;;;;;;;;;5080238;28;20027;-92
2021/06/11 04:47:37;;;;;;;16.58;10.85;;;;;;;;;;5080124;28;20029;-93
2021/06/11 04:50:03;;;;;;;16.95;10.57;;;;;;;;;;5080164;28;20031;-92
2021/06/11 05:03:54;;;;;;;14.00;10.85;;;;;;;;;;5149452;27;20456;-93
2021/06/11 05:06:20;;;;;;;13.00;10.77;;;;;;;;;;5114890;28;20420;-93
2021/06/11 05:11:51;;;;;;;12.65;11.35;;;;;;;;;;5114789;28;20073;-92
2021/06/11 05:14:17;;;;;;;14.43;11.50;;;;;;;;;;5103014;28;20464;-92
2021/06/11 05:16:43;;;;;;;15.65;12.32;;;;;;;;;;5098360;28;20016;-93
2021/06/11 05:19:09;;;;;;;15.73;12.48;;;;;;;;;;5106154;28;20028;-93
2021/06/11 05:21:35;;;;;;;18.70;13.32;;;;;;;;;;5115108;28;20078;-92
2021/06/11 05:24:01;;;;;;;15.75;12.20;;;;;;;;;;5114371;28;20020;-92
2021/06/11 05:26:27;;;;;;;16.08;12.00;;;;;;;;;;5115440;28;20133;-93
2021/06/11 05:28:53;;;;;;;14.52;12.13;;;;;;;;;;5114190;28;20065;-92
2021/06/11 05:31:20;;;;;;;22.13;13.25;;;;;;;;;;5114024;28;20409;-93
2021/06/11 05:33:46;;;;;;;22.15;14.63;;;;;;;;;;5114315;28;20074;-90
2021/06/11 05:36:12;;;;;;;18.95;12.77;;;;;;;;;;5115082;28;20069;-92
2021/06/11 05:41:41;;;;;;;21.83;17.20;;;;;;;;;;5115063;28;20085;-93
2021/06/11 05:44:07;;;;;;;15.95;11.98;;;;;;;;;;5114647;28;20024;-92
2021/06/11 05:46:34;;;;;;;25.08;17.75;;;;;;;;;;5113879;28;20063;-90
2021/06/11 05:49:00;;;;;;;22.38;14.43;;;;;;;;;;5115046;28;20023;-91
2021/06/11 05:51:26;;;;;;;30.83;22.20;;;;;;;;;;5113549;28;20059;-90
2021/06/11 05:57:14;;;;;;;13.40;8.63;;;;;;;;;;5114944;28;20028;-90
2021/06/11 05:59:40;;;;;;;9.77;8.10;;;;;;;;;;5093035;28;20444;-90
2021/06/11 06:02:07;;;;;;;21.88;17.02;;;;;;;;;;5093937;28;20424;-88
2021/06/11 06:04:33;;;;;;;42.05;34.75;;;;;;;;;;5082572;28;20024;-88
2021/06/11 06:13:06;;;;;;;12.90;9.07;;;;;;;;;;5080322;28;20082;-91
2021/06/11 06:15:32;;;;;;;9.10;6.57;;;;;;;;;;5080741;28;20056;-93
2021/06/11 06:17:58;;;;;;;13.18;8.40;;;;;;;;;;5080438;28;20031;-92
2021/06/11 06:20:24;;;;;;;35.17;26.98;;;;;;;;;;5079564;28;20075;-91
2021/06/11 06:22:51;;;;;;;60.20;44.75;;;;;;;;;;5080147;28;20021;-90
2021/06/11 06:25:17;;;;;;;11.90;9.27;;;;;;;;;;5079494;28;20318;-92
2021/06/11 06:27:44;;;;;;;37.03;26.48;;;;;;;;;;5079938;28;20024;-92
2021/06/11 06:30:11;;;;;;;12.65;7.85;;;;;;;;;;5080328;28;20024;-91
2021/06/11 06:32:37;;;;;;;8.82;5.90;;;;;;;;;;5079798;28;20033;-91
2021/06/11 06:35:04;;;;;;;11.07;8.45;;;;;;;;;;5079148;28;20051;-92
2021/06/11 06:37:31;;;;;;;14.50;7.07;;;;;;;;;;5080191;28;20044;-92
2021/06/11 06:39:57;;;;;;;10.50;6.93;;;;;;;;;;5078949;28;20073;-92
2021/06/11 06:42:23;;;;;;;11.88;9.15;;;;;;;;;;5080086;28;20044;-93
2021/06/11 06:44:49;;;;;;;8.10;5.20;;;;;;;;;;5079710;28;20032;-94
2021/06/11 06:47:15;;;;;;;6.13;5.10;;;;;;;;;;5079549;28;20020;-92
2021/06/11 06:49:42;;;;;;;6.85;4.88;;;;;;;;;;5079598;28;20020;-91
2021/06/11 06:52:08;;;;;;;5.38;4.88;;;;;;;;;;5067308;28;20035;-91
2021/06/11 06:54:34;;;;;;;14.70;7.88;;;;;;;;;;5064137;28;20033;-92
2021/06/11 06:57:01;;;;;;;11.45;7.93;;;;;;;;;;5072865;28;20024;-91
2021/06/11 06:59:27;;;;;;;9.32;6.50;;;;;;;;;;5079178;28;20386;-92
2021/06/11 07:01:57;;;;;;;17.58;10.10;;;;;;;;;;5079296;28;20080;-92
2021/06/11 07:04:24;;;;;;;10.85;8.27;;;;;;;;;;5079831;28;20035;-91
2021/06/11 07:06:50;;;;;;;23.55;14.20;;;;;;;;;;5078480;28;20032;-90
2021/06/11 07:09:17;;;;;;;9.50;7.03;;;;;;;;;;5075745;28;20036;-91
2021/06/11 07:11:44;;;;;;;12.38;8.63;;;;;;;;;;5067665;28;20052;-93
2021/06/11 07:14:10;;;;;;;11.55;6.70;;;;;;;;;;5078389;28;20322;-92
2021/06/11 07:16:36;;;;;;;10.43;7.18;;;;;;;;;;5077752;28;20119;-91
2021/06/11 07:19:02;;;;;;;9.02;6.38;;;;;;;;;;5079458;28;20032;-91
2021/06/11 07:21:29;;;;;;;11.20;5.35;;;;;;;;;;5078334;28;20020;-91
2021/06/11 07:23:55;;;;;;;9.90;5.13;;;;;;;;;;5166073;22;20041;-93
2021/06/11 07:26:21;;;;;;;8.48;5.22;;;;;;;;;;5054312;28;20033;-93
2021/06/11 07:28:47;;;;;;;9.10;5.15;;;;;;;;;;5039090;28;20461;-91
2021/06/11 07:31:13;;;;;;;5.30;4.22;;;;;;;;;;5039230;28;20108;-92
2021/06/11 07:33:39;;;;;;;7.88;4.50;;;;;;;;;;5038936;28;20031;-91
2021/06/11 07:36:05;;;;;;;5.13;4.22;;;;;;;;;;5038073;28;20025;-92
2021/06/11 07:38:31;;;;;;;8.90;4.80;;;;;;;;;;5038707;28;20026;-91
2021/06/11 07:40:58;;;;;;;7.28;4.40;;;;;;;;;;5037716;28;20053;-93
2021/06/11 07:43:25;;;;;;;5.80;4.68;;;;;;;;;;5037710;28;20021;-92
2021/06/11 07:45:51;;;;;;;8.80;3.85;;;;;;;;;;5037923;28;20049;-94
2021/06/11 07:48:17;;;;;;;6.97;4.20;;;;;;;;;;5037557;28;20026;-93
2021/06/11 07:50:43;;;;;;;13.70;5.13;;;;;;;;;;5037240;28;20112;-93
2021/06/11 07:53:10;;;;;;;6.22;5.10;;;;;;;;;;5038662;28;20065;-93
2021/06/11 07:55:36;;;;;;;14.77;4.95;;;;;;;;;;5038440;28;20048;-94
2021/06/11 07:58:03;;;;;;;17.75;4.78;;;;;;;;;;5038277;28;20203;-94
2021/06/11 08:00:29;;;;;;;10.82;5.85;;;;;;;;;;5038721;28;20056;-92
2021/06/11 08:02:56;;;;;;;10.73;6.40;;;;;;;;;;5037315;28;20025;-93
2021/06/11 08:05:22;;;;;;;15.43;6.93;;;;;;;;;;5038602;28;20032;-93
2021/06/11 08:07:48;;;;;;;7.07;5.43;;;;;;;;;;5038114;28;20427;-92
2021/06/11 08:10:14;;;;;;;12.70;4.97;;;;;;;;;;5038606;28;20034;-92
2021/06/11 08:12:40;;;;;;;11.40;4.20;;;;;;;;;;5038182;28;20116;-93
2021/06/11 08:15:07;;;;;;;7.93;4.03;;;;;;;;;;5037184;28;20022;-92
2021/06/11 08:17:33;;;;;;;8.35;4.43;;;;;;;;;;5037737;28;20322;-93
2021/06/11 08:19:59;;;;;;;6.60;4.15;;;;;;;;;;5038045;28;20029;-93
2021/06/11 08:22:26;;;;;;;8.88;4.60;;;;;;;;;;5037736;28;20052;-92
2021/06/11 08:24:52;;;;;;;9.35;4.20;;;;;;;;;;5038001;28;20148;-93
2021/06/11 08:27:18;;;;;;;8.45;4.43;;;;;;;;;;5037817;28;20029;-93
2021/06/11 08:29:44;;;;;;;7.57;4.75;;;;;;;;;;5037908;28;20021;-93
2021/06/11 08:32:10;;;;;;;8.00;4.70;;;;;;;;;;5037670;28;20262;-93
2021/06/11 08:34:37;;;;;;;8.30;5.15;;;;;;;;;;5037459;28;20021;-95
2021/06/11 08:37:06;;;;;;;22.77;16.92;;;;;;;;;;5038108;28;20072;-90
2021/06/11 08:39:32;;;;;;;21.73;13.57;;;;;;;;;;5037755;28;20032;-92
2021/06/11 08:41:58;;;;;;;27.30;16.13;;;;;;;;;;5037977;28;20067;-93
2021/06/11 08:44:26;;;;;;;19.80;6.03;;;;;;;;;;5037642;28;20091;-94
2021/06/11 08:46:53;;;;;;;10.40;4.88;;;;;;;;;;5036977;28;20025;-92
2021/06/11 08:49:19;;;;;;;9.20;5.20;;;;;;;;;;5037646;28;20029;-90
2021/06/11 08:51:46;;;;;;;6.72;4.68;;;;;;;;;;5037601;28;20025;-93
2021/06/11 08:54:13;;;;;;;7.80;4.40;;;;;;;;;;5036831;28;20156;-94
2021/06/11 08:56:39;;;;;;;5.40;3.97;;;;;;;;;;5036814;28;20024;-92
2021/06/11 08:59:06;;;;;;;5.93;3.95;;;;;;;;;;5037600;28;20017;-91
2021/06/11 09:01:33;;;;;;;5.00;3.80;;;;;;;;;;5036644;28;20107;-91
2021/06/11 09:03:59;;;;;;;5.72;3.88;;;;;;;;;;5037302;28;20022;-91
2021/06/11 09:06:26;;;;;;;4.85;3.13;;;;;;;;;;5037681;28;20022;-92
2021/06/11 09:09:01;;;;;;;7.18;2.90;;;;;;;;;;5036496;28;20112;-93
2021/06/11 09:11:28;;;;;;;4.28;2.95;;;;;;;;;;5036205;28;20021;-90
2021/06/11 09:14:02;;;;;;;5.38;2.78;;;;;;;;;;5036237;28;20028;-91
2021/06/11 09:16:29;;;;;;;16.30;4.65;;;;;;;;;;5036538;28;20067;-91
2021/06/11 09:18:59;;;;;;;5.40;2.83;;;;;;;;;;5037396;28;20032;-90
2021/06/11 09:21:28;;;;;;;4.47;2.90;;;;;;;;;;5036743;28;20028;-91
2021/06/11 09:24:09;;;;;;;3.80;2.75;;;;;;;;;;5037082;28;20481;-92
2021/06/11 09:26:35;;;;;;;4.53;2.83;;;;;;;;;;5036431;28;20025;-90
2021/06/11 09:29:17;;;;;;;4.75;3.35;;;;;;;;;;5037005;28;20029;-91
2021/06/11 09:31:43;;;;;;;5.20;3.40;;;;;;;;;;5036339;28;20029;-90
2021/06/11 09:34:28;;;;;;;3.20;2.83;;;;;;;;;;5037725;28;20045;-92
2021/06/11 09:37:28;;;;;;;6.07;3.42;;;;;;;;;;5037213;28;20032;-92
2021/06/11 09:39:55;;;;;;;3.30;3.00;;;;;;;;;;5018752;28;20037;-92
2021/06/11 09:42:23;;;;;;;5.75;3.20;;;;;;;;;;5019421;28;20446;-92
2021/06/11 09:44:54;;;;;;;3.25;2.63;;;;;;;;;;5019667;28;20428;-93
2021/06/11 09:47:31;;;;;;;3.17;2.70;;;;;;;;;;5019574;28;20081;-93
2021/06/11 09:50:02;;;;;;;5.75;2.90;;;;;;;;;;5019547;28;20037;-92
2021/06/11 09:52:51;;;;;;;3.75;2.58;;;;;;;;;;5002942;28;20432;-93
2021/06/11 09:55:46;;;;;;;3.17;2.72;;;;;;;;;;5003169;28;20022;-92
2021/06/11 09:58:14;;;;;;;2.58;2.20;;;;;;;;;;4957918;29;20057;-92
2021/06/11 10:01:01;;;;;;;4.57;2.47;;;;;;;;;;4941943;29;20038;-92
2021/06/11 10:03:31;;;;;;;2.67;2.40;;;;;;;;;;4941903;29;20036;-93
2021/06/11 10:05:58;;;;;;;4.57;2.58;;;;;;;;;;4942070;29;20118;-92
2021/06/11 10:08:25;;;;;;;2.53;2.22;;;;;;;;;;4941965;29;20046;-93
2021/06/11 10:10:52;;;;;;;3.63;2.92;;;;;;;;;;4941832;29;20071;-93
2021/06/11 10:13:19;;;;;;;8.02;3.28;;;;;;;;;;4941885;29;20050;-92
2021/06/11 10:15:47;;;;;;;3.20;2.97;;;;;;;;;;4954052;28;20369;-92
2021/06/11 10:18:13;;;;;;;5.22;2.85;;;;;;;;;;4980138;28;20085;-92
2021/06/11 10:20:40;;;;;;;4.13;3.20;;;;;;;;;;4980024;28;20033;-92
2021/06/11 10:23:07;;;;;;;6.25;3.65;;;;;;;;;;4979828;28;20050;-91
2021/06/11 10:25:33;;;;;;;5.82;3.17;;;;;;;;;;4979662;28;20026;-92
2021/06/11 10:28:01;;;;;;;8.85;3.00;;;;;;;;;;4963756;28;20042;-93
2021/06/11 10:30:28;;;;;;;6.45;3.72;;;;;;;;;;4979641;28;20026;-92
2021/06/11 10:32:54;;;;;;;5.13;3.15;;;;;;;;;;4979721;28;20026;-87
2021/06/11 10:35:41;;;;;;;5.40;3.30;;;;;;;;;;5028790;28;20033;-92
2021/06/11 10:38:45;;;;;;;7.75;3.40;;;;;;;;;;5040399;28;20025;-93
2021/06/11 10:41:11;;;;;;;5.63;3.78;;;;;;;;;;5039122;28;20093;-92
2021/06/11 10:43:38;;;;;;;13.88;4.03;;;;;;;;;;5039909;28;20410;-92
2021/06/11 10:46:24;;;;;;;8.55;3.92;;;;;;;;;;5038834;28;20030;-92
2021/06/11 10:48:56;;;;;;;4.75;3.67;;;;;;;;;;5040146;28;20025;-92
2021/06/11 10:51:35;;;;;;;7.53;3.97;;;;;;;;;;5039913;28;20028;-93
2021/06/11 10:54:20;;;;;;;5.90;3.80;;;;;;;;;;5039883;28;20026;-92
2021/06/11 10:57:12;;;;;;;5.03;3.50;;;;;;;;;;5028918;28;20030;-93
2021/06/11 10:59:43;;;;;;;6.07;4.10;;;;;;;;;;5019571;28;20018;-92
2021/06/11 11:02:09;;;;;;;;;;;;;;;;;;5020200;28;20057;-93
2021/06/11 11:04:40;;;;;;;6.43;3.42;;;;;;;;;;5019831;28;19905;-93
2021/06/11 11:07:25;;;;;;;7.85;3.08;;;;;;;;;;5019595;28;20056;-92
2021/06/11 11:10:09;;;;;;;5.60;3.42;;;;;;;;;;5019599;28;20076;-92
2021/06/11 11:12:54;;;;;;;8.75;3.78;;;;;;;;;;5018289;28;20301;-93
2021/06/11 11:15:36;;;;;;;4.63;3.67;;;;;;;;;;5019810;28;20056;-92
2021/06/11 11:18:06;;;;;;;8.48;3.47;;;;;;;;;;5019587;28;20025;-93
2021/06/11 11:20:34;;;;;;;5.40;3.30;;;;;;;;;;5019721;28;20026;-92
2021/06/11 11:23:01;;;;;;;6.75;3.45;;;;;;;;;;5019397;28;20344;-92
2021/06/11 11:25:28;;;;;;;6.00;3.17;;;;;;;;;;5019675;28;20072;-93
2021/06/11 11:27:55;;;;;;;8.65;3.90;;;;;;;;;;5018466;28;20108;-91
2021/06/11 11:30:24;;;;;;;7.97;3.40;;;;;;;;;;5018451;28;20022;-92
2021/06/11 11:32:50;;;;;;;4.88;3.17;;;;;;;;;;5018984;28;20041;-91
2021/06/11 11:35:18;;;;;;;4.38;3.33;;;;;;;;;;5019018;28;20053;-91
2021/06/11 11:37:44;;;;;;;6.28;3.28;;;;;;;;;;5018121;28;20022;-91
2021/06/11 11:40:11;;;;;;;5.07;3.10;;;;;;;;;;5019041;28;20064;-90
2021/06/11 11:42:37;;;;;;;5.53;3.05;;;;;;;;;;5019138;28;20037;-91
2021/06/11 11:45:03;;;;;;;4.82;2.80;;;;;;;;;;5018874;28;20022;-91
2021/06/11 11:47:29;;;;;;;3.85;2.75;;;;;;;;;;5018410;28;20033;-92
2021/06/11 11:49:55;;;;;;;3.17;2.50;;;;;;;;;;5018680;28;20125;-90
2021/06/11 11:52:21;;;;;;;4.18;2.90;;;;;;;;;;5018620;28;20068;-91
2021/06/11 11:54:48;;;;;;;3.78;2.30;;;;;;;;;;5017791;28;20018;-91
2021/06/11 11:57:14;;;;;;;6.55;2.30;;;;;;;;;;5018146;28;20021;-89
2021/06/11 11:59:40;;;;;;;3.78;2.17;;;;;;;;;;5019027;28;20018;-90
2021/06/11 12:02:09;;;;;;;4.57;2.28;;;;;;;;;;5018067;28;20028;-90
2021/06/11 12:04:36;;;;;;;3.17;2.38;;;;;;;;;;5018477;28;20029;-91
2021/06/11 12:07:02;;;;;;;6.07;2.53;;;;;;;;;;5018724;28;20030;-92
2021/06/11 12:09:28;;;;;;;3.80;2.58;;;;;;;;;;5019291;28;20026;-93
2021/06/11 12:11:54;;;;;;;6.70;2.25;;;;;;;;;;5018675;28;20052;-92
2021/06/11 12:14:20;;;;;;;3.08;2.30;;;;;;;;;;5018833;28;20115;-93
2021/06/11 12:16:46;;;;;;;4.63;2.45;;;;;;;;;;5018411;28;20026;-93
2021/06/11 12:19:13;;;;;;;5.20;3.50;;;;;;;;;;5028376;28;20071;-95
2021/06/11 12:21:39;;;;;;;2.90;2.60;;;;;;;;;;5037399;28;20053;-93
2021/06/11 12:24:05;;;;;;;4.68;2.72;;;;;;;;;;5036753;28;20056;-93
2021/06/11 12:26:31;;;;;;;2.92;2.38;;;;;;;;;;5037029;28;20060;-94
2021/06/11 12:28:59;;;;;;;7.95;2.85;;;;;;;;;;5037023;28;20029;-92
2021/06/11 12:31:25;;;;;;;5.05;2.20;;;;;;;;;;5037807;28;20029;-94
2021/06/11 12:33:51;;;;;;;7.80;2.38;;;;;;;;;;5036880;28;20477;-92
2021/06/11 12:36:18;;;;;;;6.03;2.70;;;;;;;;;;5037829;28;20037;-93
2021/06/11 12:38:44;;;;;;;3.92;2.53;;;;;;;;;;5037144;28;20025;-94
2021/06/11 12:41:12;;;;;;;2.05;1.63;;;;;;;;;;5037967;28;20022;-94
2021/06/11 12:46:23;;;;;;;2.60;1.60;;;;;;;;;;5038059;28;20088;-95
2021/06/11 12:48:50;;;;;;;3.45;1.60;;;;;;;;;;5037587;28;20104;-95
2021/06/11 12:51:17;;;;;;;3.42;1.77;;;;;;;;;;5037514;28;20029;-95
2021/06/11 12:53:43;;;;;;;3.38;2.00;;;;;;;;;;5037885;28;20419;-95
2021/06/11 12:56:10;;;;;;;1.95;1.67;;;;;;;;;;5038329;28;20048;-93
2021/06/11 12:58:36;;;;;;;4.28;2.42;;;;;;;;;;5037443;28;20021;-93
2021/06/11 13:01:03;;;;;;;2.30;1.58;;;;;;;;;;5037396;28;20331;-94
2021/06/11 13:03:29;;;;;;;5.85;2.17;;;;;;;;;;5040808;28;20030;-94
2021/06/11 13:05:55;;;;;;;3.67;2.00;;;;;;;;;;5036661;28;20020;-96
2021/06/11 13:08:21;;;;;;;4.00;1.88;;;;;;;;;;5037593;28;20411;-92
2021/06/11 13:10:48;;;;;;;3.28;2.17;;;;;;;;;;5036589;28;20080;-94
2021/06/11 13:13:14;;;;;;;5.13;2.10;;;;;;;;;;5037929;28;20021;-94
2021/06/11 13:15:41;;;;;;;4.38;2.88;;;;;;;;;;5040353;28;20030;-93
2021/06/11 13:18:07;;;;;;;3.60;1.90;;;;;;;;;;5040476;28;20041;-94
2021/06/11 13:20:34;;;;;;;7.03;3.63;;;;;;;;;;5041726;28;20289;-93
2021/06/11 13:23:00;;;;;;;9.90;4.18;;;;;;;;;;5041048;28;20382;-92
2021/06/11 13:25:27;;;;;;;5.85;4.20;;;;;;;;;;5040332;28;20037;-95
2021/06/11 13:27:53;;;;;;;5.32;3.97;;;;;;;;;;5040936;28;20029;-92
2021/06/11 13:30:19;;;;;;;5.57;3.53;;;;;;;;;;5041117;28;20029;-94
2021/06/11 13:32:46;;;;;;;4.40;2.10;;;;;;;;;;5040993;28;20036;-94
2021/06/11 13:35:12;;;;;;;8.65;2.53;;;;;;;;;;5040318;28;20025;-92
2021/06/11 13:37:38;;;;;;;4.35;2.28;;;;;;;;;;5041211;28;20081;-93
2021/06/11 13:40:05;;;;;;;10.27;3.25;;;;;;;;;;5040009;28;20108;-93
2021/06/11 13:42:31;;;;;;;7.07;2.60;;;;;;;;;;5040563;28;20308;-93
2021/06/11 13:44:57;;;;;;;3.33;2.20;;;;;;;;;;5040947;28;20021;-93
2021/06/11 13:47:23;;;;;;;4.10;2.65;;;;;;;;;;5040775;28;20022;-94
2021/06/11 13:49:49;;;;;;;8.43;3.33;;;;;;;;;;5040986;28;20363;-92
2021/06/11 13:52:15;;;;;;;4.22;2.00;;;;;;;;;;5040960;28;20025;-94
2021/06/11 13:54:41;;;;;;;3.95;2.35;;;;;;;;;;5040916;28;20029;-92
2021/06/11 13:57:08;;;;;;;5.47;2.88;;;;;;;;;;5040870;28;20030;-93
2021/06/11 13:59:35;;;;;;;7.68;4.25;;;;;;;;;;5040973;28;20021;-91
2021/06/11 14:02:01;;;;;;;3.45;2.42;;;;;;;;;;5040948;28;20419;-95
2021/06/11 14:04:27;;;;;;;4.88;2.35;;;;;;;;;;5042520;28;20025;-95
2021/06/11 14:06:53;;;;;;;3.63;2.28;;;;;;;;;;5043230;28;20037;-96
2021/06/11 14:09:19;;;;;;;4.45;1.92;;;;;;;;;;5043777;28;20025;-95
2021/06/11 14:11:46;;;;;;;3.53;2.13;;;;;;;;;;5049008;28;20033;-96
2021/06/11 14:14:12;;;;;;;5.72;4.50;;;;;;;;;;5041788;28;20025;-94
2021/06/11 14:16:38;;;;;;;3.92;2.17;;;;;;;;;;5042442;28;20022;-96
2021/06/11 14:19:05;;;;;;;3.95;2.30;;;;;;;;;;5040249;28;20025;-93
2021/06/11 14:21:31;;;;;;;4.85;2.50;;;;;;;;;;5042766;28;20026;-95
2021/06/11 14:23:58;;;;;;;5.70;2.40;;;;;;;;;;5041726;28;20450;-93
2021/06/11 14:26:24;;;;;;;6.97;2.90;;;;;;;;;;5028641;28;20025;-95
2021/06/11 14:28:50;;;;;;;4.35;2.67;;;;;;;;;;5039340;28;20018;-94
2021/06/11 14:31:17;;;;;;;4.65;2.63;;;;;;;;;;5040115;28;20025;-93
2021/06/11 14:33:44;;;;;;;8.38;2.38;;;;;;;;;;5039862;28;20036;-93
2021/06/11 14:36:10;;;;;;;2.30;2.13;;;;;;;;;;5040039;28;20021;-92
2021/06/11 14:38:36;;;;;;;4.45;2.63;;;;;;;;;;5040058;28;20040;-93
2021/06/11 14:41:02;;;;;;;3.28;2.40;;;;;;;;;;5038936;28;20026;-93
2021/06/11 14:43:29;;;;;;;6.47;2.33;;;;;;;;;;5039882;28;20037;-93
2021/06/11 14:45:55;;;;;;;2.92;2.30;;;;;;;;;;5039614;28;20438;-93
2021/06/11 14:48:23;;;;;;;4.95;2.40;;;;;;;;;;5039689;28;20096;-93
2021/06/11 14:50:49;;;;;;;3.30;2.13;;;;;;;;;;5039907;28;20026;-93
2021/06/11 14:58:45;;;;;;;5.95;2.78;;;;;;;;;;5040290;28;20073;-93
2021/06/11 15:01:11;;;;;;;5.68;2.65;;;;;;;;;;5039370;28;20021;-93
2021/06/11 15:03:37;;;;;;;6.97;2.78;;;;;;;;;;5039621;28;20038;-92
2021/06/11 15:06:05;;;;;;;5.60;2.55;;;;;;;;;;5038392;28;20032;-93
2021/06/11 15:08:31;;;;;;;4.38;2.88;;;;;;;;;;5038549;28;20033;-91
2021/06/11 15:10:57;;;;;;;7.32;2.70;;;;;;;;;;5038266;28;20029;-92
2021/06/11 15:13:24;;;;;;;5.20;2.60;;;;;;;;;;5038387;28;20034;-95
2021/06/11 15:15:51;;;;;;;4.68;2.80;;;;;;;;;;5041232;28;20033;-96
2021/06/11 15:18:21;;;;;;;5.30;2.78;;;;;;;;;;5041883;28;20049;-96
2021/06/11 15:20:47;;;;;;;4.18;2.30;;;;;;;;;;5038994;28;20021;-94
2021/06/11 15:23:14;;;;;;;6.10;3.97;;;;;;;;;;5039005;28;20049;-96
2021/06/11 15:25:44;;;;;;;4.15;2.20;;;;;;;;;;5040890;28;20036;-96
2021/06/11 15:28:14;;;;;;;5.63;2.13;;;;;;;;;;5040524;28;20072;-95
2021/06/11 15:30:44;;;;;;;4.15;2.28;;;;;;;;;;5043265;28;20025;-96
2021/06/11 15:33:10;;;;;;;4.28;2.35;;;;;;;;;;5039863;28;20025;-93
2021/06/11 15:35:36;;;;;;;3.72;2.30;;;;;;;;;;5038378;28;20036;-94
2021/06/11 15:38:06;;;;;;;3.97;2.30;;;;;;;;;;5037435;28;20025;-93
2021/06/11 15:40:32;;;;;;;3.20;2.28;;;;;;;;;;5038655;28;20021;-94
2021/06/11 15:42:59;;;;;;;7.13;2.85;;;;;;;;;;5037860;28;20408;-93
2021/06/11 15:45:25;;;;;;;6.85;2.72;;;;;;;;;;5037986;28;20424;-92
2021/06/11 15:47:51;;;;;;;5.03;2.53;;;;;;;;;;5038551;28;20044;-93
2021/06/11 15:50:18;;;;;;;5.65;2.75;;;;;;;;;;5037633;28;20068;-94
2021/06/11 15:52:44;;;;;;;8.30;3.22;;;;;;;;;;5037296;28;20037;-93
2021/06/11 15:55:10;;;;;;;4.85;2.85;;;;;;;;;;5038578;28;20029;-94
2021/06/11 15:57:36;;;;;;;4.35;3.30;;;;;;;;;;5038344;28;20416;-93
2021/06/11 16:00:03;;;;;;;3.60;2.95;;;;;;;;;;5038162;28;20063;-93
2021/06/11 16:02:29;;;;;;;3.72;2.85;;;;;;;;;;5037505;28;20033;-93
2021/06/11 16:04:55;;;;;;;6.10;3.53;;;;;;;;;;5038440;28;20045;-93